createdAt,value
2022-10-01T00:02:18.549Z,40.40
2022-10-01T00:07:20.840Z,35.90
2022-10-01T00:12:23.387Z,37.00
2022-10-01T00:17:29.984Z,38.10
2022-10-01T00:22:37.239Z,44.90
2022-10-01T00:27:50.669Z,35.50
2022-10-01T00:32:55.075Z,38.10
2022-10-01T00:38:01.728Z,41.10
2022-10-01T00:43:22.601Z,41.00
2022-10-01T00:48:29.704Z,47.50
2022-10-01T00:53:32.996Z,42.00
2022-10-01T00:58:36.225Z,42.90
2022-10-01T01:03:52.613Z,43.20
2022-10-01T01:08:56.271Z,42.60
2022-10-01T01:14:43.831Z,42.30
2022-10-01T01:20:21.155Z,42.70
2022-10-01T01:25:35.985Z,35.80
2022-10-01T01:30:42.771Z,41.50
2022-10-01T01:36:00.240Z,31.10
2022-10-01T01:41:12.311Z,36.60
2022-10-01T01:46:33.858Z,41.20
2022-10-01T01:51:49.247Z,42.20
2022-10-01T01:57:18.251Z,49.40
2022-10-01T02:02:28.091Z,46.70
2022-10-01T02:07:43.791Z,40.60
2022-10-01T02:13:38.822Z,41.40
2022-10-01T02:18:57.735Z,44.60
2022-10-01T02:24:31.320Z,41.80
2022-10-01T02:29:40.975Z,38.90
2022-10-01T02:34:46.232Z,41.90
2022-10-01T02:39:53.033Z,47.20
2022-10-01T02:45:02.657Z,51.10
2022-10-01T02:50:57.830Z,52.30
2022-10-01T02:56:05.242Z,48.50
2022-10-01T03:01:15.437Z,52.40
2022-10-01T03:06:23.918Z,44.80
2022-10-01T03:11:30.432Z,48.80
2022-10-01T03:16:33.644Z,47.20
2022-10-01T03:22:08.603Z,45.60
2022-10-01T03:27:14.371Z,57.10
2022-10-01T03:33:03.647Z,46.80
2022-10-01T03:38:29.412Z,52.30
2022-10-01T03:43:59.658Z,54.40
2022-10-01T03:49:03.780Z,44.80
2022-10-01T03:54:22.687Z,48.80
2022-10-01T03:59:28.749Z,48.50
2022-10-01T04:05:20.133Z,47.70
2022-10-01T04:10:22.587Z,54.70
2022-10-01T04:15:28.405Z,46.70
2022-10-01T04:20:56.819Z,48.10
2022-10-01T04:26:11.887Z,43.60
2022-10-01T04:31:35.558Z,44.20
2022-10-01T04:36:38.446Z,40.30
2022-10-01T04:41:49.124Z,49.40
2022-10-01T04:46:54.230Z,48.50
2022-10-01T04:52:01.034Z,39.60
2022-10-01T04:57:04.672Z,49.30
2022-10-01T05:02:10.613Z,51.10
2022-10-01T05:07:30.289Z,50.20
2022-10-01T05:13:11.067Z,61.60
2022-10-01T05:18:14.890Z,55.60
2022-10-01T05:23:25.155Z,56.10
2022-10-01T05:28:50.332Z,59.30
2022-10-01T05:33:56.924Z,58.40
2022-10-01T05:39:15.267Z,56.70
2022-10-01T05:45:01.308Z,55.30
2022-10-01T05:50:13.110Z,55.00
2022-10-01T05:55:27.766Z,49.90
2022-10-01T06:00:35.972Z,48.00
2022-10-01T06:05:44.992Z,43.30
2022-10-01T06:10:51.846Z,41.50
2022-10-01T06:15:57.013Z,50.30
2022-10-01T06:21:01.755Z,65.70
2022-10-01T06:26:19.764Z,47.10
2022-10-01T06:31:39.302Z,36.70
2022-10-01T06:37:07.143Z,50.80
2022-10-01T06:42:11.163Z,39.90
2022-10-01T06:47:13.524Z,43.30
2022-10-01T06:52:53.197Z,37.40
2022-10-01T06:58:01.415Z,40.70
2022-10-01T07:03:14.090Z,36.90
2022-10-01T07:08:42.020Z,46.30
2022-10-01T07:13:44.512Z,42.20
2022-10-01T07:18:47.623Z,42.80
2022-10-01T07:23:54.497Z,34.00
2022-10-01T07:28:59.555Z,40.30
2022-10-01T07:34:04.223Z,35.00
2022-10-01T07:39:25.297Z,34.30
2022-10-01T07:45:14.932Z,38.60
2022-10-01T07:50:20.734Z,35.10
2022-10-01T07:55:26.987Z,35.50
2022-10-01T08:00:33.029Z,40.30
2022-10-01T08:05:41.492Z,32.70
2022-10-01T08:10:44.637Z,36.30
2022-10-01T08:15:59.393Z,36.10
2022-10-01T08:21:23.840Z,29.20
2022-10-01T08:26:54.457Z,31.30
2022-10-01T08:32:21.970Z,31.80
2022-10-01T08:37:29.396Z,37.10
2022-10-01T08:42:44.972Z,29.60
2022-10-01T08:48:01.584Z,32.20
2022-10-01T08:53:13.949Z,34.80
2022-10-01T08:58:25.865Z,34.50
2022-10-01T09:03:33.614Z,31.20
2022-10-01T09:08:54.192Z,29.70
2022-10-01T09:14:32.506Z,26.60
2022-10-01T09:20:08.442Z,27.30
2022-10-01T09:26:00.156Z,24.90
2022-10-01T09:31:52.051Z,22.50
2022-10-01T09:37:06.951Z,22.60
2022-10-01T09:42:39.887Z,23.80
2022-10-01T09:47:48.740Z,19.90
2022-10-01T09:53:17.586Z,22.90
2022-10-01T09:58:23.340Z,19.70
2022-10-01T10:03:38.017Z,26.30
2022-10-01T10:09:18.329Z,21.10
2022-10-01T10:14:41.338Z,21.50
2022-10-01T10:20:03.195Z,22.50
2022-10-01T10:25:32.576Z,17.40
2022-10-01T10:30:37.174Z,18.10
2022-10-01T10:35:43.254Z,18.00
2022-10-01T10:40:46.797Z,15.20
2022-10-01T10:45:56.856Z,15.50
2022-10-01T10:51:02.574Z,13.50
2022-10-01T10:56:06.544Z,13.00
2022-10-01T11:01:33.116Z,13.20
2022-10-01T11:06:55.024Z,15.10
2022-10-01T11:12:27.793Z,14.70
2022-10-01T11:18:10.652Z,11.20
2022-10-01T11:23:37.703Z,8.50
2022-10-01T11:29:09.036Z,9.10
2022-10-01T11:34:48.824Z,9.70
2022-10-01T11:40:03.417Z,8.30
2022-10-01T11:45:32.127Z,9.90
2022-10-01T11:50:39.816Z,10.20
2022-10-01T11:56:22.974Z,6.60
2022-10-01T12:02:01.307Z,9.30
2022-10-01T12:07:13.472Z,6.70
2022-10-01T12:12:42.797Z,5.40
2022-10-01T12:18:19.425Z,5.50
2022-10-01T12:23:50.498Z,5.70
2022-10-01T12:29:24.713Z,6.30
2022-10-01T12:34:53.859Z,5.70
2022-10-01T12:40:18.047Z,7.60
2022-10-01T12:45:43.919Z,7.10
2022-10-01T12:51:16.494Z,6.90
2022-10-01T12:57:11.433Z,5.70
2022-10-01T13:02:45.982Z,6.50
2022-10-01T13:08:38.286Z,6.30
2022-10-01T13:13:43.008Z,5.50
2022-10-01T13:19:34.644Z,7.10
2022-10-01T13:25:13.278Z,6.20
2022-10-01T13:31:11.299Z,5.80
2022-10-01T13:36:49.559Z,5.40
2022-10-01T13:41:58.560Z,4.70
2022-10-01T13:47:07.055Z,6.20
2022-10-01T13:52:22.016Z,6.10
2022-10-01T13:58:04.940Z,3.20
2022-10-01T14:03:23.635Z,4.40
2022-10-01T14:08:31.244Z,3.50
2022-10-01T14:14:01.706Z,4.90
2022-10-01T14:19:04.744Z,5.40
2022-10-01T14:24:28.622Z,6.50
2022-10-01T14:30:11.799Z,4.80
2022-10-01T14:35:32.979Z,6.30
2022-10-01T14:40:41.279Z,5.60
2022-10-01T14:46:14.032Z,8.10
2022-10-01T14:51:51.587Z,6.50
2022-10-01T14:56:53.899Z,9.40
2022-10-01T15:02:01.904Z,6.80
2022-10-01T15:07:12.803Z,7.70
2022-10-01T15:12:40.423Z,7.20
2022-10-01T15:17:43.222Z,8.10
2022-10-01T15:23:01.091Z,8.40
2022-10-01T15:28:14.580Z,7.00
2022-10-01T15:33:50.221Z,8.40
2022-10-01T15:39:13.997Z,8.10
2022-10-01T15:44:38.570Z,10.90
2022-10-01T15:49:40.909Z,8.60
2022-10-01T15:55:05.268Z,10.40
2022-10-01T16:00:22.387Z,8.40
2022-10-01T16:05:36.260Z,7.50
2022-10-01T16:10:45.766Z,7.80
2022-10-01T16:16:20.766Z,6.90
2022-10-01T16:22:18.864Z,7.90
2022-10-01T16:27:31.799Z,9.90
2022-10-01T16:32:52.134Z,9.60
2022-10-01T16:37:58.047Z,8.50
2022-10-01T16:43:11.083Z,12.60
2022-10-01T16:48:19.719Z,9.60
2022-10-01T16:53:29.643Z,10.30
2022-10-01T16:58:32.712Z,14.40
2022-10-01T17:03:35.854Z,15.00
2022-10-01T17:08:38.291Z,17.10
2022-10-01T17:13:43.682Z,16.20
2022-10-01T17:18:48.758Z,17.80
2022-10-01T17:24:02.317Z,13.30
2022-10-01T17:29:06.907Z,14.10
2022-10-01T17:34:09.012Z,11.80
2022-10-01T17:39:11.208Z,12.00
2022-10-01T17:44:36.983Z,6.00
2022-10-01T17:49:39.686Z,4.70
2022-10-01T17:54:41.788Z,6.00
2022-10-01T17:59:44.047Z,5.50
2022-10-01T18:04:47.090Z,5.00
2022-10-01T18:09:55.775Z,3.20
2022-10-01T18:14:58.146Z,4.20
2022-10-01T18:20:00.398Z,4.30
2022-10-01T18:25:03.647Z,3.00
2022-10-01T18:30:10.380Z,2.40
2022-10-01T18:35:41.425Z,2.80
2022-10-01T18:40:56.535Z,3.50
2022-10-01T18:46:43.187Z,4.50
2022-10-01T18:52:25.852Z,5.60
2022-10-01T18:58:01.561Z,4.30
2022-10-01T19:03:35.851Z,2.80
2022-10-01T19:09:09.947Z,3.80
2022-10-01T19:14:39.100Z,4.40
2022-10-01T19:20:53.673Z,3.10
2022-10-01T19:26:10.069Z,5.70
2022-10-01T19:31:44.354Z,3.40
2022-10-01T19:37:12.558Z,3.10
2022-10-01T19:42:29.711Z,4.50
2022-10-01T19:48:06.503Z,1.40
2022-10-01T19:53:24.055Z,2.30
2022-10-01T19:58:26.927Z,2.90
2022-10-01T20:03:44.660Z,6.90
2022-10-01T20:09:20.274Z,4.60
2022-10-01T20:15:07.261Z,4.20
2022-10-01T20:20:16.299Z,6.90
2022-10-01T20:25:33.955Z,4.60
2022-10-01T20:31:05.767Z,4.50
2022-10-01T20:36:17.552Z,4.30
2022-10-01T20:41:30.275Z,6.10
2022-10-01T20:46:43.494Z,4.70
2022-10-01T20:51:58.427Z,4.70
2022-10-01T20:57:14.095Z,5.70
2022-10-01T21:03:01.804Z,5.00
2022-10-01T21:09:02.081Z,4.60
2022-10-01T21:14:20.819Z,4.50
2022-10-01T21:20:02.840Z,3.30
2022-10-01T21:26:19.168Z,3.70
2022-10-01T21:31:33.434Z,3.10
2022-10-01T21:37:03.215Z,3.10
2022-10-01T21:42:16.710Z,3.40
2022-10-01T21:48:04.112Z,3.20
2022-10-01T21:53:57.255Z,3.50
2022-10-01T21:59:11.900Z,4.50
2022-10-01T22:04:38.718Z,2.30
2022-10-01T22:09:53.525Z,3.00
2022-10-01T22:14:59.274Z,2.50
2022-10-01T22:20:04.871Z,3.50
2022-10-01T22:25:28.504Z,4.60
2022-10-01T22:30:34.597Z,2.10
2022-10-01T22:36:15.772Z,2.50
2022-10-01T22:41:47.123Z,2.00
2022-10-01T22:47:50.386Z,2.50
2022-10-01T22:53:50.364Z,2.30
2022-10-01T22:59:12.939Z,2.50
2022-10-01T23:05:08.666Z,3.00
2022-10-01T23:10:47.488Z,3.40
2022-10-01T23:16:14.580Z,3.70
2022-10-01T23:21:42.820Z,3.10
2022-10-01T23:27:19.811Z,3.20
2022-10-01T23:32:51.115Z,2.80
2022-10-01T23:39:01.809Z,2.10
2022-10-01T23:44:52.722Z,3.00
2022-10-01T23:50:27.901Z,2.90
2022-10-01T23:56:01.019Z,3.50
